Time;durP1;ratioP1;P1;durP2;ratioP2;P2;SDS_P1;SDS_P2;PMS_P1;PMS_P2;Temp;Humidity;BMP_temperature;BMP_pressure;BME280_temperature;BME280_humidity;BME280_pressure;Samples;Min_cycle;Max_cycle;Signal;HPM_P1;HPM_P2
2021/12/09 00:01:01;;;;;;;6.97;4.47;;;3.20;88.20;;;;;;5137088;27;20023;-78
2021/12/09 00:03:29;;;;;;;8.63;4.00;;;3.20;88.10;;;;;;5137042;27;20015;-75
2021/12/09 00:05:56;;;;;;;8.82;4.85;;;3.20;87.90;;;;;;5136868;27;20020;-76
2021/12/09 00:08:25;;;;;;;9.30;4.78;;;3.30;87.80;;;;;;5136931;27;20489;-76
2021/12/09 00:10:51;;;;;;;9.50;4.70;;;3.20;87.70;;;;;;5136706;27;20474;-74
2021/12/09 00:13:18;;;;;;;9.85;5.38;;;3.20;87.80;;;;;;5135600;27;20127;-74
2021/12/09 00:15:44;;;;;;;12.25;5.60;;;3.20;87.80;;;;;;5136696;27;20034;-75
2021/12/09 00:18:10;;;;;;;8.60;5.65;;;3.20;87.80;;;;;;5136637;27;20383;-75
2021/12/09 00:20:35;;;;;;;11.73;6.03;;;3.20;87.80;;;;;;5136555;27;20474;-75
2021/12/09 00:23:01;;;;;;;9.82;4.72;;;3.20;87.90;;;;;;5136557;27;20475;-74
2021/12/09 00:25:27;;;;;;;9.10;4.82;;;3.20;88.00;;;;;;5136586;27;20027;-73
2021/12/09 00:27:53;;;;;;;7.90;4.35;;;3.20;88.30;;;;;;5136430;27;20075;-75
2021/12/09 00:30:21;;;;;;;7.53;4.20;;;3.20;88.20;;;;;;5135070;27;20054;-76
2021/12/09 00:32:47;;;;;;;7.57;5.13;;;3.20;88.20;;;;;;5136149;27;20122;-76
2021/12/09 00:35:15;;;;;;;11.77;6.07;;;3.00;88.20;;;;;;5136272;27;20479;-75
2021/12/09 00:37:52;;;;;;;10.63;5.97;;;2.90;88.60;;;;;;5135052;27;20653;-75
2021/12/09 00:40:18;;;;;;;11.57;5.63;;;2.90;88.80;;;;;;5136376;27;20023;-76
2021/12/09 00:42:44;;;;;;;10.88;5.30;;;2.90;89.00;;;;;;5134882;27;20034;-76
2021/12/09 00:45:09;;;;;;;8.48;5.20;;;2.90;88.90;;;;;;5136252;27;20034;-75
2021/12/09 00:47:35;;;;;;;9.85;4.88;;;3.00;89.00;;;;;;5134773;27;20016;-75
2021/12/09 00:50:00;;;;;;;10.65;5.65;;;3.00;88.90;;;;;;5136136;27;20057;-77
2021/12/09 00:52:27;;;;;;;11.32;5.63;;;3.00;88.60;;;;;;5136164;27;20019;-78
2021/12/09 00:54:55;;;;;;;12.27;6.40;;;3.00;88.50;;;;;;5135792;27;20060;-78
2021/12/09 00:57:22;;;;;;;9.05;5.40;;;3.00;88.40;;;;;;5135910;27;20022;-76
2021/12/09 00:59:48;;;;;;;10.55;5.93;;;3.00;88.40;;;;;;5135698;27;20027;-76
2021/12/09 01:02:14;;;;;;;10.05;6.45;;;3.00;88.20;;;;;;5135836;27;20022;-73
2021/12/09 01:04:41;;;;;;;11.70;5.68;;;3.10;88.30;;;;;;5135589;27;20455;-75
2021/12/09 01:07:06;;;;;;;13.10;6.55;;;3.10;88.30;;;;;;5135380;27;20035;-76
2021/12/09 01:09:32;;;;;;;13.13;6.93;;;3.10;88.10;;;;;;5135697;27;20038;-76
2021/12/09 01:11:58;;;;;;;11.95;6.13;;;3.10;88.00;;;;;;5135819;27;20015;-76
2021/12/09 01:14:24;;;;;;;12.88;6.47;;;3.10;88.10;;;;;;5135507;27;20097;-74
2021/12/09 01:16:50;;;;;;;11.88;6.35;;;3.10;88.10;;;;;;5135568;27;20463;-76
2021/12/09 01:19:15;;;;;;;13.07;6.00;;;3.00;88.10;;;;;;5135500;27;20080;-76
2021/12/09 01:21:41;;;;;;;10.32;5.57;;;3.00;88.30;;;;;;5135361;27;20487;-80
2021/12/09 01:24:07;;;;;;;10.98;6.20;;;3.10;88.50;;;;;;5135134;27;20031;-78
2021/12/09 01:26:33;;;;;;;15.38;7.13;;;3.10;88.50;;;;;;5135419;27;20019;-75
2021/12/09 01:29:04;;;;;;;13.00;6.47;;;3.10;88.70;;;;;;5134921;27;20102;-75
2021/12/09 01:31:35;;;;;;;12.32;7.53;;;3.10;88.60;;;;;;5135201;27;20102;-77
2021/12/09 01:34:03;;;;;;;15.25;7.40;;;3.10;88.60;;;;;;5135058;27;20103;-76
2021/12/09 01:36:32;;;;;;;16.25;6.80;;;3.00;88.70;;;;;;5135084;27;20019;-76
2021/12/09 01:38:59;;;;;;;11.43;5.95;;;3.00;88.80;;;;;;5135116;27;20023;-74
2021/12/09 01:41:24;;;;;;;12.80;6.47;;;3.00;89.00;;;;;;5135129;27;20068;-75
2021/12/09 01:43:50;;;;;;;8.93;5.55;;;3.00;88.90;;;;;;5135019;27;20421;-75
2021/12/09 01:46:20;;;;;;;12.32;5.50;;;3.10;89.80;;;;;;5133791;27;20066;-75
2021/12/09 01:48:47;;;;;;;12.30;5.47;;;3.10;88.90;;;;;;5133656;27;20380;-73
2021/12/09 01:51:13;;;;;;;8.23;4.72;;;3.10;88.90;;;;;;5133740;27;20027;-73
2021/12/09 01:53:39;;;;;;;11.05;4.80;;;3.10;88.80;;;;;;5134767;27;20092;-75
2021/12/09 01:56:09;;;;;;;6.82;4.40;;;3.10;88.70;;;;;;5134959;27;20026;-78
2021/12/09 01:58:35;;;;;;;9.07;4.40;;;3.10;88.60;;;;;;5134683;27;20042;-74
2021/12/09 02:01:01;;;;;;;10.98;4.95;;;3.10;88.70;;;;;;5134732;27;20038;-74
2021/12/09 02:03:27;;;;;;;9.77;4.93;;;3.10;88.40;;;;;;5134751;27;20107;-74
2021/12/09 02:05:54;;;;;;;9.00;4.72;;;3.10;88.40;;;;;;5133073;27;20051;-75
2021/12/09 02:08:20;;;;;;;11.95;5.10;;;3.10;88.50;;;;;;5133305;27;20068;-73
2021/12/09 02:10:47;;;;;;;8.07;4.70;;;3.10;88.30;;;;;;5134371;27;20061;-75
2021/12/09 02:13:13;;;;;;;8.23;4.25;;;3.20;88.20;;;;;;5134264;27;20117;-74
2021/12/09 02:15:40;;;;;;;8.20;4.50;;;3.10;88.10;;;;;;5134272;27;20050;-75
2021/12/09 02:18:08;;;;;;;9.02;4.63;;;3.10;88.30;;;;;;5134305;27;20041;-74
2021/12/09 02:20:35;;;;;;;14.10;5.75;;;3.10;88.40;;;;;;5134182;27;20096;-75
2021/12/09 02:23:07;;;;;;;9.88;5.55;;;3.10;88.40;;;;;;5134258;27;20027;-74
2021/12/09 02:25:33;;;;;;;11.43;5.45;;;3.10;88.40;;;;;;5134177;27;20060;-75
2021/12/09 02:27:59;;;;;;;10.15;5.38;;;3.20;88.30;;;;;;5134184;27;20035;-75
2021/12/09 02:30:24;;;;;;;14.30;5.68;;;3.20;88.20;;;;;;5134216;27;20023;-75
2021/12/09 02:32:50;;;;;;;9.75;5.60;;;3.30;88.20;;;;;;5133949;27;20058;-77
2021/12/09 02:35:15;;;;;;;12.10;5.88;;;3.20;88.00;;;;;;5132514;27;20414;-79
2021/12/09 02:37:42;;;;;;;9.77;5.45;;;3.30;88.00;;;;;;5132633;27;20042;-75
2021/12/09 02:40:09;;;;;;;12.02;5.50;;;3.30;88.00;;;;;;5134124;27;20084;-76
2021/12/09 02:42:35;;;;;;;9.52;5.25;;;3.30;87.90;;;;;;5134028;27;20351;-76
2021/12/09 02:45:02;;;;;;;8.80;5.05;;;3.30;87.80;;;;;;5132756;27;20068;-76
2021/12/09 02:47:28;;;;;;;9.10;4.82;;;3.30;87.80;;;;;;5132708;27;20031;-74
2021/12/09 02:49:54;;;;;;;8.15;4.53;;;3.30;87.90;;;;;;5134201;27;20027;-73
2021/12/09 02:52:19;;;;;;;10.13;5.32;;;3.30;87.90;;;;;;5134128;27;20029;-74
2021/12/09 02:54:45;;;;;;;9.10;4.80;;;3.30;87.90;;;;;;5134002;28;20049;-76
2021/12/09 02:57:11;;;;;;;11.48;5.40;;;3.30;87.80;;;;;;5134350;28;20023;-75
2021/12/09 02:59:37;;;;;;;9.63;5.15;;;3.30;87.70;;;;;;5141733;28;20027;-73
2021/12/09 03:02:05;;;;;;;10.07;5.22;;;3.30;87.60;;;;;;5149626;28;20044;-74
2021/12/09 03:04:43;;;;;;;7.85;4.72;;;3.30;87.60;;;;;;5148495;28;20052;-73
2021/12/09 03:07:16;;;;;;;8.15;4.82;;;3.30;87.60;;;;;;5148789;28;20018;-73
2021/12/09 03:09:53;;;;;;;7.75;4.45;;;3.30;87.70;;;;;;5144051;28;20027;-76
2021/12/09 03:12:23;;;;;;;7.75;4.32;;;3.30;87.80;;;;;;5134337;28;20478;-73
2021/12/09 03:14:49;;;;;;;9.18;4.28;;;3.30;87.80;;;;;;5133986;28;20433;-75
2021/12/09 03:17:14;;;;;;;10.75;4.03;;;3.30;87.70;;;;;;5134029;28;20019;-76
2021/12/09 03:19:40;;;;;;;8.68;4.38;;;3.30;87.50;;;;;;5133960;28;20098;-75
2021/12/09 03:22:06;;;;;;;9.18;4.10;;;3.30;87.40;;;;;;5133709;28;20019;-73
2021/12/09 03:24:32;;;;;;;5.60;3.13;;;3.20;87.50;;;;;;5133518;28;20483;-74
2021/12/09 03:26:58;;;;;;;6.45;2.80;;;3.20;87.60;;;;;;5133565;28;20076;-77
2021/12/09 03:29:28;;;;;;;7.32;3.40;;;3.20;87.70;;;;;;5133499;28;20024;-75
2021/12/09 03:31:57;;;;;;;9.93;3.40;;;3.20;87.60;;;;;;5133155;28;20082;-74
2021/12/09 03:34:25;;;;;;;9.70;3.05;;;3.20;87.70;;;;;;5133321;28;20031;-75
2021/12/09 03:36:52;;;;;;;9.63;2.70;;;3.10;87.60;;;;;;5133457;28;20027;-73
2021/12/09 03:39:21;;;;;;;6.05;2.38;;;3.10;87.40;;;;;;5133477;28;20027;-74
2021/12/09 03:41:51;;;;;;;10.00;2.88;;;3.10;87.20;;;;;;5133258;28;20020;-73
2021/12/09 03:44:17;;;;;;;9.23;3.13;;;3.10;87.00;;;;;;5133566;28;20375;-75
2021/12/09 03:46:44;;;;;;;4.90;1.80;;;3.00;87.20;;;;;;5133527;27;20034;-74
2021/12/09 03:49:10;;;;;;;5.10;1.77;;;3.00;87.40;;;;;;5137258;27;20030;-73
2021/12/09 03:51:36;;;;;;;6.70;2.30;;;3.00;87.30;;;;;;5135815;27;20063;-76
2021/12/09 03:54:07;;;;;;;14.15;5.00;;;3.00;87.30;;;;;;5137108;27;20031;-74
2021/12/09 03:56:33;;;;;;;12.00;3.95;;;2.90;87.70;;;;;;5137056;27;20023;-74
2021/12/09 03:58:59;;;;;;;12.55;4.38;;;2.90;88.00;;;;;;5136953;27;20019;-74
2021/12/09 04:01:25;;;;;;;8.93;3.60;;;3.00;88.10;;;;;;5136819;27;20023;-73
2021/12/09 04:03:51;;;;;;;7.88;2.67;;;3.00;88.00;;;;;;5136928;27;20019;-74
2021/12/09 04:06:16;;;;;;;8.20;3.17;;;3.10;88.10;;;;;;5136925;27;20356;-75
2021/12/09 04:08:42;;;;;;;6.45;2.90;;;3.10;87.90;;;;;;5136872;27;20023;-79
2021/12/09 04:11:10;;;;;;;8.10;3.38;;;3.10;87.90;;;;;;5136938;27;20111;-78
2021/12/09 04:13:39;;;;;;;9.30;2.90;;;3.10;87.80;;;;;;5136710;27;20052;-78
2021/12/09 04:16:07;;;;;;;9.60;2.80;;;3.10;87.80;;;;;;5136703;27;20031;-78
2021/12/09 04:18:34;;;;;;;7.38;3.05;;;3.00;88.00;;;;;;5136607;27;20449;-78
2021/12/09 04:21:01;;;;;;;7.80;2.83;;;3.00;88.10;;;;;;5135369;27;20110;-75
2021/12/09 04:23:26;;;;;;;6.75;3.20;;;3.10;88.30;;;;;;5136661;27;20030;-74
2021/12/09 04:25:52;;;;;;;9.40;2.63;;;3.10;88.30;;;;;;5136490;27;20031;-73
2021/12/09 04:28:18;;;;;;;10.50;2.88;;;3.20;88.10;;;;;;5136480;27;20372;-76
2021/12/09 04:30:44;;;;;;;7.88;2.58;;;3.20;87.90;;;;;;5136328;27;20463;-73
2021/12/09 04:33:10;;;;;;;5.05;2.22;;;3.20;87.70;;;;;;5136081;27;20071;-77
2021/12/09 04:35:35;;;;;;;7.35;3.40;;;3.20;87.70;;;;;;5136259;27;20027;-75
2021/12/09 04:38:01;;;;;;;8.27;3.55;;;3.20;87.70;;;;;;5136290;27;20455;-74
2021/12/09 04:40:27;;;;;;;8.07;3.00;;;3.20;87.70;;;;;;5136309;27;20035;-75
2021/12/09 04:42:53;;;;;;;6.47;2.80;;;3.30;87.80;;;;;;5136190;27;20026;-76
2021/12/09 04:45:18;;;;;;;7.15;3.15;;;3.30;87.80;;;;;;5136062;27;20102;-74
2021/12/09 04:47:44;;;;;;;8.70;3.15;;;3.30;87.70;;;;;;5136152;27;20019;-74
2021/12/09 04:50:11;;;;;;;7.03;2.83;;;3.30;87.80;;;;;;5136125;27;20023;-74
2021/12/09 04:52:37;;;;;;;8.57;2.60;;;3.30;87.60;;;;;;5136006;27;20053;-74
2021/12/09 04:55:05;;;;;;;4.95;2.42;;;3.30;87.50;;;;;;5135917;27;20051;-74
2021/12/09 04:57:31;;;;;;;7.55;2.80;;;3.30;87.50;;;;;;5135821;27;20026;-74
2021/12/09 04:59:56;;;;;;;9.85;2.83;;;3.30;87.50;;;;;;5135200;27;20092;-74
2021/12/09 05:02:30;;;;;;;7.82;2.80;;;3.30;87.60;;;;;;5135753;27;20019;-73
2021/12/09 05:04:56;;;;;;;8.57;2.65;;;3.30;87.50;;;;;;5135650;27;20021;-73
2021/12/09 05:07:22;;;;;;;9.25;2.85;;;3.40;87.40;;;;;;5135718;27;20416;-73
2021/12/09 05:09:51;;;;;;;14.90;3.08;;;3.40;87.40;;;;;;5135557;27;20023;-73
2021/12/09 05:12:18;;;;;;;6.43;2.45;;;3.40;87.20;;;;;;5135641;27;20015;-74
2021/12/09 05:14:47;;;;;;;7.80;2.72;;;3.40;87.20;;;;;;5135316;27;20403;-73
2021/12/09 05:17:15;;;;;;;6.85;3.00;;;3.40;87.20;;;;;;5135479;27;20107;-74
2021/12/09 05:19:41;;;;;;;9.52;2.65;;;3.40;87.10;;;;;;5135291;27;20023;-75
2021/12/09 05:22:07;;;;;;;9.70;2.85;;;3.30;87.10;;;;;;5135250;27;20027;-74
2021/12/09 05:24:34;;;;;;;8.55;2.33;;;3.40;87.20;;;;;;5135123;27;20047;-73
2021/12/09 05:27:00;;;;;;;7.50;3.10;;;3.40;87.20;;;;;;5134842;27;20041;-74
2021/12/09 05:29:32;;;;;;;10.70;3.65;;;3.30;87.20;;;;;;5135148;27;20019;-73
2021/12/09 05:32:08;;;;;;;5.43;2.92;;;3.30;87.40;;;;;;5134806;27;20043;-73
2021/12/09 05:34:37;;;;;;;9.45;3.38;;;3.30;87.50;;;;;;5134881;27;20035;-73
2021/12/09 05:37:05;;;;;;;8.57;3.30;;;3.30;88.50;;;;;;5133705;27;20023;-74
2021/12/09 05:39:30;;;;;;;8.70;3.83;;;3.30;87.90;;;;;;5134877;27;20039;-74
2021/12/09 05:41:56;;;;;;;15.05;5.03;;;3.30;87.80;;;;;;5134838;27;20096;-75
2021/12/09 05:44:21;;;;;;;15.15;6.30;;;3.30;87.70;;;;;;5135025;27;20105;-75
2021/12/09 05:46:48;;;;;;;15.55;7.35;;;3.30;87.60;;;;;;5134870;27;20452;-74
2021/12/09 05:49:15;;;;;;;17.52;7.30;;;3.40;87.60;;;;;;5134970;27;20033;-74
2021/12/09 05:51:41;;;;;;;15.43;7.45;;;3.30;87.50;;;;;;5134605;27;20015;-80
2021/12/09 05:54:07;;;;;;;15.98;6.55;;;3.40;87.50;;;;;;5134816;27;20038;-79
2021/12/09 05:56:34;;;;;;;14.45;5.68;;;3.30;87.30;;;;;;5134746;27;20098;-80
2021/12/09 05:59:01;;;;;;;15.32;6.03;;;3.40;87.20;;;;;;5134701;27;20065;-79
2021/12/09 06:01:27;;;;;;;16.50;6.45;;;3.40;87.20;;;;;;5133378;27;20500;-76
2021/12/09 06:03:52;;;;;;;14.57;5.90;;;3.40;87.30;;;;;;5134676;27;20027;-78
2021/12/09 06:06:19;;;;;;;15.60;6.80;;;3.40;87.00;;;;;;5134603;27;20030;-79
2021/12/09 06:08:45;;;;;;;17.85;7.30;;;3.30;86.90;;;;;;5134466;27;20077;-76
2021/12/09 06:11:11;;;;;;;17.60;6.57;;;3.30;86.90;;;;;;5133107;27;20043;-80
2021/12/09 06:13:38;;;;;;;12.15;5.07;;;3.30;87.00;;;;;;5134005;27;20063;-73
2021/12/09 06:16:06;;;;;;;12.77;3.80;;;3.30;86.70;;;;;;5134097;27;20019;-73
2021/12/09 06:18:32;;;;;;;9.77;3.55;;;3.10;86.10;;;;;;5134068;27;20102;-74
2021/12/09 06:20:58;;;;;;;7.03;2.92;;;3.00;86.40;;;;;;5134202;27;20499;-74
2021/12/09 06:23:24;;;;;;;8.18;3.20;;;3.00;86.70;;;;;;5134024;27;20027;-73
2021/12/09 06:25:50;;;;;;;9.52;3.28;;;3.00;86.80;;;;;;5134036;27;20369;-74
2021/12/09 06:28:17;;;;;;;11.88;3.47;;;3.00;86.90;;;;;;5134329;27;20463;-73
2021/12/09 06:30:43;;;;;;;17.85;4.75;;;3.00;87.00;;;;;;5132204;27;20437;-74
2021/12/09 06:33:09;;;;;;;11.10;5.40;;;3.10;87.20;;;;;;5133407;27;20495;-73
2021/12/09 06:35:36;;;;;;;10.07;4.95;;;3.10;87.20;;;;;;5133768;27;20034;-74
2021/12/09 06:38:05;;;;;;;9.02;4.45;;;3.20;87.20;;;;;;5133568;27;20030;-75
2021/12/09 06:40:31;;;;;;;11.40;4.30;;;3.20;87.10;;;;;;5133862;27;20023;-76
2021/12/09 06:42:57;;;;;;;6.93;3.28;;;3.20;87.00;;;;;;5134042;27;20026;-75
2021/12/09 06:45:24;;;;;;;6.28;3.22;;;3.20;86.80;;;;;;5133723;27;20394;-74
2021/12/09 06:47:50;;;;;;;10.32;4.55;;;3.20;86.70;;;;;;5133800;27;20099;-75
2021/12/09 06:50:18;;;;;;;10.88;4.50;;;3.10;86.70;;;;;;5132165;27;20492;-75
2021/12/09 06:52:45;;;;;;;16.23;7.13;;;3.00;87.00;;;;;;5133565;27;20027;-74
2021/12/09 06:55:12;;;;;;;15.05;6.80;;;3.00;87.10;;;;;;5133520;28;20041;-77
2021/12/09 06:57:39;;;;;;;12.00;6.30;;;2.90;87.60;;;;;;5133576;28;20047;-74
2021/12/09 07:00:11;;;;;;;8.65;3.90;;;3.00;88.10;;;;;;5133517;28;20425;-75
2021/12/09 07:02:37;;;;;;;11.52;4.25;;;3.00;87.80;;;;;;5133205;28;20438;-73
2021/12/09 07:05:04;;;;;;;8.15;3.55;;;3.00;88.00;;;;;;5133553;28;20102;-78
2021/12/09 07:07:30;;;;;;;10.52;3.78;;;3.10;87.90;;;;;;5132243;28;20023;-79
2021/12/09 07:09:56;;;;;;;8.02;4.22;;;3.10;87.70;;;;;;5133193;28;20050;-78
2021/12/09 07:12:21;;;;;;;7.88;3.72;;;3.10;87.70;;;;;;5133408;28;20107;-78
2021/12/09 07:14:47;;;;;;;12.32;3.47;;;3.10;87.60;;;;;;5133150;28;20088;-78
2021/12/09 07:17:13;;;;;;;11.85;3.83;;;3.20;87.70;;;;;;5133239;28;20027;-78
2021/12/09 07:19:39;;;;;;;11.23;4.10;;;3.20;87.60;;;;;;5133021;28;20028;-79
2021/12/09 07:22:05;;;;;;;10.25;3.78;;;3.30;87.60;;;;;;5133754;27;20042;-79
2021/12/09 07:24:31;;;;;;;8.13;4.30;;;3.30;87.50;;;;;;5136704;27;20483;-79
2021/12/09 07:26:57;;;;;;;7.53;3.33;;;3.40;88.20;;;;;;5137244;27;20058;-78
2021/12/09 07:29:24;;;;;;;9.05;4.00;;;3.40;87.20;;;;;;5137183;27;20450;-79
2021/12/09 07:31:50;;;;;;;11.48;4.25;;;3.40;87.10;;;;;;5137042;27;20043;-79
2021/12/09 07:34:16;;;;;;;6.68;3.50;;;3.40;87.00;;;;;;5137320;27;20070;-78
2021/12/09 07:36:42;;;;;;;11.85;4.10;;;3.40;87.00;;;;;;5136022;27;20241;-74
2021/12/09 07:39:08;;;;;;;13.90;4.60;;;3.40;87.00;;;;;;5137544;27;20027;-74
2021/12/09 07:41:34;;;;;;;10.07;4.40;;;3.40;87.00;;;;;;5137310;27;20386;-73
2021/12/09 07:44:02;;;;;;;16.08;4.75;;;3.50;87.10;;;;;;5137238;27;20023;-73
2021/12/09 07:46:29;;;;;;;12.60;4.97;;;3.50;87.10;;;;;;5137183;27;20062;-72
2021/12/09 07:48:54;;;;;;;14.68;5.28;;;3.50;87.20;;;;;;5137234;27;20031;-73
2021/12/09 07:51:20;;;;;;;15.00;5.45;;;3.50;87.10;;;;;;5137158;27;20024;-72
2021/12/09 07:53:46;;;;;;;11.30;4.10;;;3.50;87.10;;;;;;5135666;27;20039;-74
2021/12/09 07:56:11;;;;;;;8.82;3.55;;;3.40;86.60;;;;;;5136740;27;20374;-73
2021/12/09 07:58:37;;;;;;;5.85;2.78;;;3.00;87.00;;;;;;5136795;27;20431;-73
2021/12/09 08:01:03;;;;;;;3.53;1.17;;;2.80;87.80;;;;;;5137008;27;20027;-75
2021/12/09 08:03:29;;;;;;;6.15;1.63;;;2.50;86.10;;;;;;5136647;27;20495;-73
2021/12/09 08:05:55;;;;;;;2.58;1.70;;;2.50;85.40;;;;;;5136630;27;20116;-73
2021/12/09 08:08:20;;;;;;;6.65;2.03;;;2.50;86.00;;;;;;5136711;27;20019;-73
2021/12/09 08:10:46;;;;;;;3.38;2.10;;;2.50;86.70;;;;;;5136479;27;20020;-74
2021/12/09 08:13:13;;;;;;;4.50;2.20;;;2.60;86.90;;;;;;5136559;27;20048;-73
2021/12/09 08:15:45;;;;;;;4.43;1.90;;;2.60;86.80;;;;;;5136183;27;20046;-73
2021/12/09 08:18:26;;;;;;;5.28;2.28;;;2.70;86.60;;;;;;5136467;27;20027;-73
2021/12/09 08:20:56;;;;;;;4.25;1.90;;;2.80;86.60;;;;;;5136385;27;20475;-73
2021/12/09 08:23:21;;;;;;;4.03;2.40;;;2.90;86.50;;;;;;5136303;27;20031;-73
2021/12/09 08:25:48;;;;;;;5.13;2.53;;;3.00;86.10;;;;;;5136193;27;20491;-73
2021/12/09 08:28:14;;;;;;;5.07;2.70;;;3.10;85.90;;;;;;5136360;27;20073;-74
2021/12/09 08:30:40;;;;;;;4.65;2.63;;;3.20;85.70;;;;;;5135841;27;20023;-73
2021/12/09 08:33:07;;;;;;;3.58;2.13;;;3.20;85.50;;;;;;5135451;27;20122;-73
2021/12/09 08:35:33;;;;;;;5.95;2.00;;;3.30;85.20;;;;;;5134175;27;20133;-74
2021/12/09 08:37:59;;;;;;;3.97;2.00;;;3.30;84.90;;;;;;5135998;27;20012;-73
2021/12/09 08:40:26;;;;;;;5.22;2.70;;;3.30;84.50;;;;;;5135852;27;20023;-77
2021/12/09 08:42:53;;;;;;;14.40;3.28;;;3.40;83.70;;;;;;5136062;27;20023;-73
2021/12/09 08:45:20;;;;;;;11.38;3.65;;;3.30;83.40;;;;;;5135948;27;20023;-73
2021/12/09 08:47:46;;;;;;;8.73;3.95;;;3.30;83.50;;;;;;5135966;27;20042;-74
2021/12/09 08:50:16;;;;;;;8.23;3.72;;;3.20;83.80;;;;;;5135923;27;20503;-73
2021/12/09 08:52:42;;;;;;;10.80;4.30;;;3.20;84.40;;;;;;5135934;27;20058;-74
2021/12/09 08:55:09;;;;;;;10.43;4.07;;;3.10;84.90;;;;;;5135832;27;20071;-73
2021/12/09 08:57:37;;;;;;;8.48;3.90;;;3.10;84.50;;;;;;5135677;27;20022;-74
2021/12/09 09:00:09;;;;;;;8.48;4.18;;;3.10;84.30;;;;;;5135920;27;20027;-74
2021/12/09 09:02:36;;;;;;;12.93;3.95;;;3.10;83.70;;;;;;5135563;27;20410;-73
2021/12/09 09:05:02;;;;;;;9.57;4.07;;;3.10;83.40;;;;;;5134213;27;20375;-74
2021/12/09 09:07:28;;;;;;;14.32;4.95;;;3.00;84.10;;;;;;5134139;27;20455;-73
2021/12/09 09:09:53;;;;;;;13.90;4.75;;;3.00;84.10;;;;;;5135381;27;20038;-73
2021/12/09 09:12:19;;;;;;;11.95;4.22;;;3.10;87.40;;;;;;5135385;27;20478;-76
2021/12/09 09:14:45;;;;;;;10.70;3.95;;;3.50;87.20;;;;;;5135264;27;20042;-77
2021/12/09 09:17:11;;;;;;;10.13;3.83;;;3.70;85.10;;;;;;5135374;27;20016;-77
2021/12/09 09:19:37;;;;;;;11.18;3.70;;;3.90;83.20;;;;;;5135208;27;20133;-78
2021/12/09 09:22:04;;;;;;;5.80;3.10;;;4.10;82.10;;;;;;5135174;27;20015;-77
2021/12/09 09:24:30;;;;;;;7.88;3.58;;;4.30;81.80;;;;;;5135032;27;20479;-77
2021/12/09 09:26:56;;;;;;;9.18;3.25;;;4.40;78.80;;;;;;5135357;27;20027;-78
2021/12/09 09:29:21;;;;;;;7.97;3.38;;;4.30;78.10;;;;;;5135186;27;20023;-77
2021/12/09 09:31:47;;;;;;;10.45;3.25;;;4.20;78.60;;;;;;5135054;27;20578;-77
2021/12/09 09:34:13;;;;;;;10.02;3.53;;;4.30;79.60;;;;;;5133689;27;20023;-77
2021/12/09 09:36:44;;;;;;;7.45;2.63;;;4.50;78.20;;;;;;5134744;27;20027;-76
2021/12/09 09:39:17;;;;;;;6.65;2.80;;;4.50;76.10;;;;;;5135929;27;20015;-77
2021/12/09 09:41:47;;;;;;;5.25;2.22;;;4.30;75.90;;;;;;5132596;27;20379;-74
2021/12/09 09:44:16;;;;;;;8.65;2.65;;;4.40;76.90;;;;;;5134525;27;20022;-75
2021/12/09 09:46:43;;;;;;;6.35;2.88;;;4.20;75.90;;;;;;5133290;27;20030;-77
2021/12/09 09:49:10;;;;;;;7.88;3.30;;;4.00;76.70;;;;;;5134023;27;20015;-78
2021/12/09 09:51:37;;;;;;;10.13;3.80;;;4.00;77.70;;;;;;5133653;27;20023;-77
2021/12/09 09:54:05;;;;;;;7.75;2.75;;;4.00;77.50;;;;;;5132690;27;20031;-75
2021/12/09 09:56:32;;;;;;;8.60;2.50;;;3.90;77.70;;;;;;5134790;27;20016;-78
2021/12/09 09:59:07;;;;;;;5.80;1.95;;;3.80;77.30;;;;;;5134312;27;20027;-74
2021/12/09 10:01:36;;;;;;;3.65;1.83;;;3.70;76.80;;;;;;5133998;27;20037;-74
2021/12/09 10:04:13;;;;;;;6.05;1.80;;;3.70;77.40;;;;;;5134624;27;20031;-75
2021/12/09 10:06:41;;;;;;;4.32;2.80;;;3.80;77.90;;;;;;5134394;27;20019;-74
2021/12/09 10:09:09;;;;;;;7.05;2.40;;;3.80;77.10;;;;;;5134923;27;20124;-74
2021/12/09 10:11:37;;;;;;;9.23;3.83;;;3.80;76.40;;;;;;5134574;27;20531;-74
2021/12/09 10:14:21;;;;;;;13.55;5.55;;;3.90;77.20;;;;;;5133358;27;20042;-78
2021/12/09 10:17:04;;;;;;;5.28;2.28;;;4.10;76.80;;;;;;5134889;27;20019;-75
2021/12/09 10:19:32;;;;;;;5.70;2.30;;;4.20;73.10;;;;;;5134729;27;20047;-74
2021/12/09 10:22:16;;;;;;;7.65;1.75;;;4.00;73.60;;;;;;5134500;27;20035;-77
2021/12/09 10:24:47;;;;;;;6.60;2.22;;;4.10;73.20;;;;;;5134867;27;20027;-76
2021/12/09 10:27:41;;;;;;;6.05;2.38;;;4.00;72.40;;;;;;5133154;27;20027;-73
2021/12/09 10:30:12;;;;;;;8.13;2.60;;;4.10;73.80;;;;;;5131622;27;20100;-74
2021/12/09 10:32:39;;;;;;;4.80;1.60;;;4.10;74.90;;;;;;5134654;27;20043;-76
2021/12/09 10:35:06;;;;;;;7.22;2.85;;;4.10;74.40;;;;;;5134394;27;20035;-75
2021/12/09 10:37:33;;;;;;;3.28;1.90;;;4.00;75.80;;;;;;5132796;27;20015;-74
2021/12/09 10:40:35;;;;;;;7.88;1.90;;;3.90;73.90;;;;;;5133872;27;20042;-74
2021/12/09 10:43:03;;;;;;;6.15;2.58;;;3.70;75.50;;;;;;5070987;28;20024;-74
2021/12/09 10:45:35;;;;;;;4.03;1.67;;;3.80;75.30;;;;;;5122482;27;20168;-74
2021/12/09 10:48:16;;;;;;;3.75;1.58;;;3.70;76.10;;;;;;5134267;27;20034;-74
2021/12/09 10:50:53;;;;;;;6.00;2.30;;;3.80;76.00;;;;;;5133934;27;20467;-77
2021/12/09 10:55:52;;;;;;;5.15;2.17;;;4.00;74.50;;;;;;5134018;28;20015;-73
2021/12/09 10:58:21;;;;;;;7.13;2.08;;;3.90;75.10;;;;;;5133360;27;20011;-73
2021/12/09 11:00:55;;;;;;;6.28;2.08;;;4.00;75.30;;;;;;5133743;28;20050;-74
2021/12/09 11:03:34;;;;;;;4.75;2.00;;;4.00;75.00;;;;;;5133605;28;20494;-74
2021/12/09 11:06:03;;;;;;;7.28;1.83;;;4.00;75.10;;;;;;5133717;28;20027;-74
2021/12/09 11:08:30;;;;;;;7.35;2.20;;;3.90;75.40;;;;;;5134272;28;20015;-75
2021/12/09 11:11:06;;;;;;;6.22;2.20;;;3.90;76.20;;;;;;5133750;28;20092;-74
2021/12/09 11:13:38;;;;;;;;;;;3.90;76.30;;;;;;5133957;28;20036;-74
2021/12/09 11:16:05;;;;;;;5.70;1.95;;;3.80;76.80;;;;;;5134071;28;19903;-76
2021/12/09 11:18:42;;;;;;;8.70;2.28;;;3.90;77.10;;;;;;5133559;28;20068;-74
2021/12/09 11:21:22;;;;;;;5.55;2.15;;;3.80;77.70;;;;;;5133650;28;20098;-74
2021/12/09 11:24:06;;;;;;;6.57;1.92;;;3.80;77.90;;;;;;5133518;28;20023;-74
2021/12/09 11:26:51;;;;;;;6.45;2.08;;;3.90;77.20;;;;;;5133509;28;20470;-76
2021/12/09 11:29:28;;;;;;;4.78;1.92;;;4.00;76.30;;;;;;5133440;28;20057;-74
2021/12/09 11:34:38;;;;;;;6.93;2.33;;;4.10;75.80;;;;;;5133146;28;20041;-75
2021/12/09 11:37:22;;;;;;;5.47;2.00;;;4.00;75.70;;;;;;5133124;28;20015;-75
2021/12/09 11:39:48;;;;;;;3.78;1.85;;;4.00;75.90;;;;;;5132925;28;20110;-74
2021/12/09 11:42:17;;;;;;;5.53;1.90;;;3.80;77.90;;;;;;5131467;28;20412;-75
2021/12/09 11:44:47;;;;;;;6.82;2.30;;;3.70;78.50;;;;;;5133061;28;20034;-74
2021/12/09 11:47:14;;;;;;;4.80;1.67;;;3.70;79.50;;;;;;5133274;28;20327;-74
2021/12/09 11:49:43;;;;;;;7.22;2.22;;;3.80;79.10;;;;;;5133264;28;20020;-74
2021/12/09 11:52:10;;;;;;;6.10;3.05;;;3.80;79.30;;;;;;5133079;28;20481;-74
2021/12/09 11:54:37;;;;;;;8.85;3.60;;;3.70;80.60;;;;;;5133296;28;20368;-72
2021/12/09 11:58:02;;;;;;;;;;;3.70;80.70;;;;;;5112137;27;20319;-76
2021/12/09 12:07:04;;;;;;;6.97;2.60;;;4.30;81.00;;;;;;5112605;28;20072;-73
2021/12/09 12:12:52;;;;;;;6.85;2.20;;;4.90;78.20;;;;;;5111010;28;20019;-76
2021/12/09 12:15:26;;;;;;;8.50;2.80;;;5.30;77.50;;;;;;5111140;28;20016;-74
2021/12/09 12:21:18;;;;;;;4.45;2.70;;;5.50;76.00;;;;;;5112056;28;20030;-73
2021/12/09 12:24:08;;;;;;;6.30;2.85;;;5.60;75.40;;;;;;5110774;28;20100;-74
2021/12/09 12:27:03;;;;;;;5.95;3.28;;;5.50;75.80;;;;;;5110876;28;20337;-77
2021/12/09 12:33:50;;;;;;;;;;;5.30;75.80;;;;;;5086155;28;20453;-72
2021/12/09 12:36:38;;;;;;;6.88;2.78;;;5.30;76.50;;;;;;5070100;28;19916;-73
2021/12/09 12:39:16;;;;;;;9.35;2.65;;;5.10;77.70;;;;;;5070191;28;20071;-74
2021/12/09 12:41:59;;;;;;;8.20;2.40;;;5.00;76.70;;;;;;5069792;28;20025;-72
2021/12/09 12:44:25;;;;;;;8.00;2.78;;;4.70;78.30;;;;;;5069943;28;20020;-72
2021/12/09 12:47:09;;;;;;;9.20;2.88;;;4.50;79.10;;;;;;5069564;28;20025;-72
2021/12/09 12:49:36;;;;;;;7.20;2.83;;;4.50;79.70;;;;;;5069768;28;20040;-73
2021/12/09 12:52:10;;;;;;;9.15;3.35;;;4.50;80.90;;;;;;5069726;28;20029;-72
2021/12/09 12:54:48;;;;;;;7.57;2.80;;;4.70;80.30;;;;;;5069709;28;20428;-72
2021/12/09 12:57:34;;;;;;;8.30;2.88;;;4.70;78.80;;;;;;5070299;28;20036;-76
2021/12/09 13:00:11;;;;;;;8.52;3.33;;;5.40;78.40;;;;;;5070364;28;20032;-72
2021/12/09 13:11:54;;;;;;;7.10;2.25;;;6.10;72.60;;;;;;5060566;28;20373;-72
2021/12/09 13:14:24;;;;;;;4.82;2.15;;;6.20;71.80;;;;;;5052044;28;20033;-76
2021/12/09 13:19:33;;;;;;;7.45;1.77;;;6.10;70.80;;;;;;5069779;28;20111;-72
2021/12/09 13:22:26;;;;;;;7.25;2.80;;;6.00;71.20;;;;;;5070300;28;20064;-71
2021/12/09 13:25:05;;;;;;;5.63;2.13;;;6.00;73.10;;;;;;5069406;28;20021;-74
2021/12/09 13:36:10;;;;;;;3.75;1.45;;;15.00;43.10;;;;;;5069154;28;20470;-72
2021/12/09 13:49:23;;;;;;;6.72;2.17;;;11.60;42.50;;;;;;5055516;28;20385;-75
2021/12/09 13:54:27;;;;;;;4.95;2.45;;;9.20;51.10;;;;;;5055540;28;20035;-74
2021/12/09 13:57:13;;;;;;;6.97;1.55;;;7.80;57.60;;;;;;5055410;28;20028;-74
2021/12/09 13:59:39;;;;;;;10.05;2.10;;;7.10;61.20;;;;;;5054988;28;20457;-73